createdAt,value
2024-02-07T00:01:40.082Z,17.90
2024-02-07T00:05:52.542Z,17.40
2024-02-07T00:10:05.567Z,21.02
2024-02-07T00:14:18.073Z,15.48
2024-02-07T00:18:30.518Z,16.13
2024-02-07T00:22:43.087Z,16.05
2024-02-07T00:26:55.409Z,15.63
2024-02-07T00:31:08.783Z,20.30
2024-02-07T00:35:23.019Z,15.18
2024-02-07T00:39:38.516Z,17.83
2024-02-07T00:43:52.258Z,16.40
2024-02-07T00:48:05.353Z,15.23
2024-02-07T00:52:18.346Z,13.40
2024-02-07T00:56:31.705Z,14.73
2024-02-07T01:00:44.102Z,18.42
2024-02-07T01:04:56.616Z,12.57
2024-02-07T01:09:11.622Z,18.58
2024-02-07T01:13:24.027Z,13.40
2024-02-07T01:17:36.318Z,16.50
2024-02-07T01:21:48.740Z,16.83
2024-02-07T01:26:02.525Z,14.38
2024-02-07T01:30:15.127Z,22.65
2024-02-07T01:34:27.560Z,15.90
2024-02-07T01:38:40.225Z,13.57
2024-02-07T01:42:52.562Z,12.40
2024-02-07T01:47:12.909Z,14.90
2024-02-07T01:51:26.142Z,15.38
2024-02-07T01:55:39.744Z,12.80
2024-02-07T01:59:52.243Z,18.73
2024-02-07T02:04:05.032Z,17.30
2024-02-07T02:08:17.467Z,13.48
2024-02-07T02:12:31.734Z,14.73
2024-02-07T02:16:44.179Z,12.10
2024-02-07T02:20:56.743Z,15.57
2024-02-07T02:25:38.755Z,10.48
2024-02-07T02:29:55.540Z,14.75
2024-02-07T02:34:08.670Z,16.58
2024-02-07T02:38:25.006Z,16.30
2024-02-07T02:42:37.415Z,18.60
2024-02-07T02:46:50.539Z,13.05
2024-02-07T02:51:04.323Z,15.68
2024-02-07T02:55:16.851Z,18.85
2024-02-07T02:59:31.185Z,12.23
2024-02-07T03:03:55.397Z,11.55
2024-02-07T03:08:11.782Z,16.02
2024-02-07T03:12:24.248Z,13.88
2024-02-07T03:16:37.588Z,13.27
2024-02-07T03:20:51.094Z,13.95
2024-02-07T03:25:03.573Z,13.88
2024-02-07T03:29:15.894Z,11.25
2024-02-07T03:33:28.492Z,12.40
2024-02-07T03:37:41.287Z,11.73
2024-02-07T03:41:53.856Z,12.10
2024-02-07T03:46:07.609Z,11.75
2024-02-07T03:50:26.996Z,10.57
2024-02-07T03:54:51.348Z,15.88
2024-02-07T03:59:04.678Z,14.63
2024-02-07T04:03:19.646Z,15.35
2024-02-07T04:07:32.115Z,12.95
2024-02-07T04:11:44.577Z,16.25
2024-02-07T04:16:15.603Z,11.57
2024-02-07T04:20:46.214Z,13.10
2024-02-07T04:25:16.995Z,11.02
2024-02-07T04:29:47.708Z,12.15
2024-02-07T04:34:18.664Z,13.77
2024-02-07T04:38:49.691Z,13.45
2024-02-07T04:43:20.485Z,12.30
2024-02-07T04:47:51.237Z,12.30
2024-02-07T04:52:21.934Z,12.95
2024-02-07T04:56:53.182Z,10.77
2024-02-07T05:01:24.010Z,14.70
2024-02-07T05:05:54.791Z,13.02
2024-02-07T05:10:26.260Z,11.95
2024-02-07T05:14:50.386Z,18.20
2024-02-07T05:19:03.866Z,14.52
2024-02-07T05:23:18.465Z,13.70
2024-02-07T05:27:33.608Z,15.80
2024-02-07T05:31:46.927Z,13.65
2024-02-07T05:36:00.360Z,17.02
2024-02-07T05:40:13.437Z,14.90
2024-02-07T05:44:25.874Z,15.13
2024-02-07T05:48:40.817Z,15.73
2024-02-07T05:52:53.188Z,14.35
2024-02-07T05:57:05.612Z,14.93
2024-02-07T06:01:18.820Z,17.80
2024-02-07T06:05:31.325Z,20.67
2024-02-07T06:09:43.708Z,14.27
2024-02-07T06:13:56.156Z,18.58
2024-02-07T06:18:08.940Z,21.20
2024-02-07T06:22:21.395Z,24.48
2024-02-07T06:26:33.806Z,20.52
2024-02-07T06:30:46.194Z,29.83
2024-02-07T06:34:58.629Z,24.17
2024-02-07T06:39:11.035Z,25.05
2024-02-07T06:43:23.910Z,29.85
2024-02-07T06:47:36.321Z,23.27
2024-02-07T06:51:49.436Z,23.58
2024-02-07T06:56:02.240Z,22.60
2024-02-07T07:00:15.626Z,27.30
2024-02-07T07:04:28.138Z,22.92
2024-02-07T07:08:40.591Z,24.10
2024-02-07T07:12:52.971Z,25.20
2024-02-07T07:17:05.590Z,18.30
2024-02-07T07:21:18.114Z,17.98
2024-02-07T07:25:30.670Z,17.25
2024-02-07T07:29:43.157Z,22.00
2024-02-07T07:33:56.749Z,21.63
2024-02-07T07:38:10.653Z,16.60
2024-02-07T07:42:23.212Z,16.40
2024-02-07T07:46:35.724Z,18.33
2024-02-07T07:50:48.203Z,22.15
2024-02-07T07:55:00.609Z,25.63
2024-02-07T07:59:14.934Z,29.17
2024-02-07T08:03:27.307Z,22.27
2024-02-07T08:07:39.662Z,28.73
2024-02-07T08:11:52.076Z,28.77
2024-02-07T08:16:04.599Z,21.40
2024-02-07T08:20:17.997Z,19.77
2024-02-07T08:24:33.421Z,18.83
2024-02-07T08:28:50.625Z,16.30
2024-02-07T08:33:07.204Z,17.85
2024-02-07T08:37:31.905Z,18.88
2024-02-07T08:41:44.471Z,12.57
2024-02-07T08:45:56.822Z,15.75
2024-02-07T08:50:09.705Z,12.95
2024-02-07T08:54:22.102Z,12.52
2024-02-07T08:58:36.448Z,13.52
2024-02-07T09:02:54.601Z,16.05
2024-02-07T09:07:07.078Z,14.93
2024-02-07T09:11:19.631Z,11.07
2024-02-07T09:15:31.966Z,12.88
2024-02-07T09:19:44.289Z,13.68
2024-02-07T09:23:58.181Z,13.82
2024-02-07T09:28:10.537Z,15.98
2024-02-07T09:32:22.847Z,10.95
2024-02-07T09:36:40.034Z,13.00
2024-02-07T09:41:00.705Z,13.70
2024-02-07T09:45:15.796Z,11.23
2024-02-07T09:49:29.852Z,10.75
2024-02-07T09:53:44.422Z,9.85
2024-02-07T09:57:58.069Z,10.02
2024-02-07T10:02:13.437Z,17.33
2024-02-07T10:06:27.159Z,11.48
2024-02-07T10:10:40.271Z,10.32
2024-02-07T10:14:52.705Z,11.85
2024-02-07T10:19:05.629Z,14.45
2024-02-07T10:23:18.086Z,11.45
2024-02-07T10:27:30.434Z,9.35
2024-02-07T10:31:42.831Z,11.32
2024-02-07T10:36:05.596Z,16.98
2024-02-07T10:40:18.115Z,10.00
2024-02-07T10:44:30.607Z,9.88
2024-02-07T10:48:43.531Z,9.63
2024-02-07T10:52:56.337Z,9.48
2024-02-07T10:57:10.500Z,12.98
2024-02-07T11:01:24.073Z,9.77
2024-02-07T11:05:37.610Z,7.63
2024-02-07T11:09:50.124Z,9.80
2024-02-07T11:14:05.284Z,8.68
2024-02-07T11:18:18.058Z,12.85
2024-02-07T11:22:37.823Z,9.63
2024-02-07T11:26:51.176Z,9.25
2024-02-07T11:31:06.952Z,6.03
2024-02-07T11:35:23.774Z,8.07
2024-02-07T11:39:41.508Z,7.28
2024-02-07T11:44:03.036Z,10.43
2024-02-07T11:48:22.863Z,9.30
2024-02-07T11:52:40.003Z,7.82
2024-02-07T11:56:56.706Z,7.70
2024-02-07T12:01:12.577Z,11.05
2024-02-07T12:05:26.496Z,8.60
2024-02-07T12:09:38.974Z,14.63
2024-02-07T12:13:51.463Z,11.32
2024-02-07T12:18:06.373Z,8.88
2024-02-07T12:22:21.733Z,14.00
2024-02-07T12:26:34.138Z,6.38
2024-02-07T12:30:46.565Z,8.15
2024-02-07T12:35:01.440Z,10.48
2024-02-07T12:39:13.966Z,10.32
2024-02-07T12:43:27.980Z,8.25
2024-02-07T12:47:40.825Z,13.65
2024-02-07T12:51:53.352Z,12.48
2024-02-07T12:56:08.649Z,7.40
2024-02-07T13:00:21.421Z,16.38
2024-02-07T13:04:34.286Z,15.32
2024-02-07T13:08:47.897Z,14.32
2024-02-07T13:13:00.280Z,10.43
2024-02-07T13:17:12.651Z,15.75
2024-02-07T13:21:25.341Z,15.77
2024-02-07T13:25:38.388Z,12.65
2024-02-07T13:29:51.199Z,9.55
2024-02-07T13:34:03.756Z,13.02
2024-02-07T13:38:26.665Z,14.93
2024-02-07T13:42:46.105Z,11.68
2024-02-07T13:47:00.376Z,13.30
2024-02-07T13:51:13.317Z,14.05
2024-02-07T13:55:25.732Z,12.63
2024-02-07T13:59:38.266Z,9.98
2024-02-07T14:03:50.700Z,17.20
2024-02-07T14:08:03.261Z,22.13
2024-02-07T14:12:15.674Z,10.68
2024-02-07T14:16:28.270Z,14.10
2024-02-07T14:20:40.752Z,12.40
2024-02-07T14:24:53.325Z,10.95
2024-02-07T14:29:05.905Z,9.80
2024-02-07T14:33:19.191Z,14.40
2024-02-07T14:37:37.988Z,21.92
2024-02-07T14:41:50.427Z,16.80
2024-02-07T14:46:02.784Z,14.25
2024-02-07T14:50:20.013Z,12.15
2024-02-07T14:54:32.465Z,17.08
2024-02-07T14:58:44.949Z,11.05
2024-02-07T15:02:57.282Z,12.50
2024-02-07T15:07:09.720Z,9.35
2024-02-07T15:11:23.317Z,8.77
2024-02-07T15:15:36.153Z,12.35
2024-02-07T15:19:49.162Z,12.02
2024-02-07T15:24:01.524Z,12.70
2024-02-07T15:28:14.029Z,9.70
2024-02-07T15:32:26.478Z,16.63
2024-02-07T15:36:39.054Z,13.30
2024-02-07T15:40:53.076Z,14.68
2024-02-07T15:45:06.944Z,15.23
2024-02-07T15:49:19.562Z,16.83
2024-02-07T15:53:32.280Z,21.92
2024-02-07T15:57:44.720Z,21.90
2024-02-07T16:01:57.595Z,27.27
2024-02-07T16:06:10.298Z,30.83
2024-02-07T16:10:22.880Z,36.15
2024-02-07T16:14:36.315Z,33.40
2024-02-07T16:18:48.646Z,41.05
2024-02-07T16:23:01.865Z,46.90
2024-02-07T16:27:14.300Z,39.85
2024-02-07T16:31:26.784Z,46.00
2024-02-07T16:35:39.767Z,52.30
2024-02-07T16:39:53.317Z,42.78
2024-02-07T16:44:08.844Z,44.35
2024-02-07T16:48:21.350Z,44.92
2024-02-07T16:52:35.148Z,47.47
2024-02-07T16:56:47.526Z,51.72
2024-02-07T17:01:00.296Z,52.97
2024-02-07T17:05:13.533Z,54.33
2024-02-07T17:09:25.961Z,54.95
2024-02-07T17:13:39.952Z,42.28
2024-02-07T17:17:52.680Z,50.60
2024-02-07T17:22:06.352Z,47.60
2024-02-07T17:26:18.935Z,48.00
2024-02-07T17:30:36.756Z,46.03
2024-02-07T17:34:50.339Z,49.45
2024-02-07T17:39:02.804Z,52.20
2024-02-07T17:43:15.151Z,53.22
2024-02-07T17:47:29.041Z,53.65
2024-02-07T17:51:44.978Z,47.47
2024-02-07T17:55:57.379Z,44.30
2024-02-07T18:00:10.390Z,41.47
2024-02-07T18:04:22.842Z,39.20
2024-02-07T18:08:35.985Z,40.83
2024-02-07T18:12:48.811Z,50.88
2024-02-07T18:17:01.435Z,46.63
2024-02-07T18:21:14.104Z,51.78
2024-02-07T18:25:26.729Z,52.00
2024-02-07T18:29:39.088Z,52.85
2024-02-07T18:33:51.627Z,45.85
2024-02-07T18:38:04.282Z,48.00
2024-02-07T18:42:16.916Z,52.72
2024-02-07T18:46:29.227Z,60.47
2024-02-07T18:50:42.464Z,45.95
2024-02-07T18:54:56.475Z,49.58
2024-02-07T18:59:08.878Z,53.72
2024-02-07T19:03:22.372Z,61.33
2024-02-07T19:07:34.700Z,50.78
2024-02-07T19:11:47.278Z,61.00
2024-02-07T19:15:59.719Z,56.40
2024-02-07T19:20:12.470Z,53.13
2024-02-07T19:24:25.011Z,46.63
2024-02-07T19:28:38.467Z,53.47
2024-02-07T19:32:50.982Z,51.20
2024-02-07T19:37:03.445Z,50.17
2024-02-07T19:41:15.946Z,49.75
2024-02-07T19:45:28.252Z,51.92
2024-02-07T19:49:40.788Z,53.60
2024-02-07T19:53:53.343Z,53.63
2024-02-07T19:58:05.698Z,43.33
2024-02-07T20:02:18.222Z,39.20
2024-02-07T20:06:32.079Z,37.65
2024-02-07T20:10:46.453Z,33.47
2024-02-07T20:15:01.270Z,36.40
2024-02-07T20:19:13.990Z,31.17
2024-02-07T20:23:26.616Z,37.28
2024-02-07T20:27:39.966Z,31.50
2024-02-07T20:31:52.510Z,29.63
2024-02-07T20:36:05.645Z,34.13
2024-02-07T20:40:18.061Z,31.65
2024-02-07T20:44:30.652Z,34.45
2024-02-07T20:48:43.844Z,28.83
2024-02-07T20:52:59.273Z,36.15
2024-02-07T20:57:14.756Z,27.52
2024-02-07T21:01:27.125Z,30.67
2024-02-07T21:05:40.344Z,34.67
2024-02-07T21:09:52.793Z,37.45
2024-02-07T21:14:05.415Z,28.88
2024-02-07T21:18:18.022Z,33.40
2024-02-07T21:22:30.430Z,37.65
2024-02-07T21:26:42.960Z,38.45
2024-02-07T21:30:55.343Z,36.25
2024-02-07T21:35:09.874Z,34.50
2024-02-07T21:39:23.483Z,34.22
2024-02-07T21:43:35.826Z,33.58
2024-02-07T21:47:48.349Z,36.47
2024-02-07T21:52:00.768Z,32.33
2024-02-07T21:56:13.174Z,40.17
2024-02-07T22:00:27.038Z,39.65
2024-02-07T22:04:39.581Z,34.17
2024-02-07T22:08:52.076Z,35.05
2024-02-07T22:13:04.722Z,34.42
2024-02-07T22:17:17.036Z,32.63
2024-02-07T22:21:29.483Z,48.38
2024-02-07T22:25:41.952Z,38.85
2024-02-07T22:29:54.536Z,40.90
2024-02-07T22:34:07.923Z,24.98
2024-02-07T22:38:20.496Z,36.50
2024-02-07T22:42:32.866Z,29.48
2024-02-07T22:46:49.354Z,28.33
2024-02-07T22:51:01.802Z,49.97
2024-02-07T22:55:14.348Z,44.08
2024-02-07T22:59:26.965Z,25.08
2024-02-07T23:03:39.348Z,26.33
2024-02-07T23:07:51.813Z,27.88
2024-02-07T23:12:04.392Z,24.02
2024-02-07T23:16:16.855Z,24.92
2024-02-07T23:20:29.291Z,26.95
2024-02-07T23:24:41.880Z,19.77
2024-02-07T23:28:54.786Z,23.83
2024-02-07T23:33:07.975Z,28.33
2024-02-07T23:37:20.377Z,11.60
2024-02-07T23:41:35.747Z,13.00
2024-02-07T23:45:48.061Z,14.27
2024-02-07T23:50:00.668Z,16.23
2024-02-07T23:54:15.198Z,14.75
2024-02-07T23:58:27.996Z,27.35
